sensor_id;sensor_type;location;lat;lon;timestamp;P1;durP1;ratioP1;P2;durP2;ratioP2
11535;SDS011;5824;49.336;8.652;2023-07-16T00:01:45;10.20;;;5.30;;
11535;SDS011;5824;49.336;8.652;2023-07-16T00:04:10;7.20;;;4.50;;
11535;SDS011;5824;49.336;8.652;2023-07-16T00:06:36;7.20;;;4.60;;
11535;SDS011;5824;49.336;8.652;2023-07-16T00:09:01;7.67;;;4.50;;
11535;SDS011;5824;49.336;8.652;2023-07-16T00:11:28;6.30;;;4.57;;
11535;SDS011;5824;49.336;8.652;2023-07-16T00:13:53;8.93;;;4.50;;
11535;SDS011;5824;49.336;8.652;2023-07-16T00:16:19;8.00;;;4.70;;
11535;SDS011;5824;49.336;8.652;2023-07-16T00:18:44;9.17;;;4.70;;
11535;SDS011;5824;49.336;8.652;2023-07-16T00:21:10;7.70;;;4.40;;
11535;SDS011;5824;49.336;8.652;2023-07-16T00:23:35;4.77;;;3.93;;
11535;SDS011;5824;49.336;8.652;2023-07-16T00:26:01;8.03;;;4.17;;
11535;SDS011;5824;49.336;8.652;2023-07-16T00:28:27;8.30;;;4.03;;
11535;SDS011;5824;49.336;8.652;2023-07-16T00:30:53;7.63;;;3.87;;
11535;SDS011;5824;49.336;8.652;2023-07-16T00:33:18;6.20;;;4.07;;
11535;SDS011;5824;49.336;8.652;2023-07-16T00:35:47;5.60;;;3.60;;
11535;SDS011;5824;49.336;8.652;2023-07-16T00:38:14;6.10;;;3.70;;
11535;SDS011;5824;49.336;8.652;2023-07-16T00:40:39;5.50;;;3.40;;
11535;SDS011;5824;49.336;8.652;2023-07-16T00:43:05;4.77;;;3.47;;
11535;SDS011;5824;49.336;8.652;2023-07-16T00:45:30;6.67;;;3.70;;
11535;SDS011;5824;49.336;8.652;2023-07-16T00:47:56;8.53;;;3.60;;
11535;SDS011;5824;49.336;8.652;2023-07-16T00:50:22;5.00;;;3.33;;
11535;SDS011;5824;49.336;8.652;2023-07-16T00:52:48;6.03;;;3.67;;
11535;SDS011;5824;49.336;8.652;2023-07-16T00:55:14;4.17;;;3.03;;
11535;SDS011;5824;49.336;8.652;2023-07-16T00:57:40;6.10;;;3.57;;
11535;SDS011;5824;49.336;8.652;2023-07-16T01:00:06;5.30;;;3.30;;
11535;SDS011;5824;49.336;8.652;2023-07-16T01:02:32;6.23;;;3.40;;
11535;SDS011;5824;49.336;8.652;2023-07-16T01:04:58;5.63;;;3.53;;
11535;SDS011;5824;49.336;8.652;2023-07-16T01:07:24;5.23;;;3.23;;
11535;SDS011;5824;49.336;8.652;2023-07-16T01:09:51;9.40;;;3.23;;
11535;SDS011;5824;49.336;8.652;2023-07-16T01:12:21;6.90;;;3.63;;
11535;SDS011;5824;49.336;8.652;2023-07-16T01:14:47;5.80;;;3.30;;
11535;SDS011;5824;49.336;8.652;2023-07-16T01:17:14;3.90;;;3.00;;
11535;SDS011;5824;49.336;8.652;2023-07-16T01:19:40;5.47;;;3.10;;
11535;SDS011;5824;49.336;8.652;2023-07-16T01:25:16;5.50;;;2.80;;
11535;SDS011;5824;49.336;8.652;2023-07-16T01:27:59;4.53;;;2.73;;
11535;SDS011;5824;49.336;8.652;2023-07-16T01:30:37;4.10;;;2.80;;
11535;SDS011;5824;49.336;8.652;2023-07-16T01:33:05;4.47;;;3.20;;
11535;SDS011;5824;49.336;8.652;2023-07-16T01:35:33;3.50;;;2.67;;
11535;SDS011;5824;49.336;8.652;2023-07-16T01:37:59;5.17;;;2.93;;
11535;SDS011;5824;49.336;8.652;2023-07-16T01:40:25;4.53;;;2.97;;
11535;SDS011;5824;49.336;8.652;2023-07-16T01:42:51;5.13;;;3.40;;
11535;SDS011;5824;49.336;8.652;2023-07-16T01:45:17;4.97;;;3.00;;
11535;SDS011;5824;49.336;8.652;2023-07-16T01:50:26;5.83;;;2.80;;
11535;SDS011;5824;49.336;8.652;2023-07-16T01:52:52;9.20;;;3.50;;
11535;SDS011;5824;49.336;8.652;2023-07-16T01:55:17;6.80;;;3.47;;
11535;SDS011;5824;49.336;8.652;2023-07-16T01:57:43;7.40;;;4.00;;
11535;SDS011;5824;49.336;8.652;2023-07-16T02:00:08;4.93;;;3.00;;
11535;SDS011;5824;49.336;8.652;2023-07-16T02:02:35;4.73;;;3.07;;
11535;SDS011;5824;49.336;8.652;2023-07-16T02:05:01;9.23;;;3.27;;
11535;SDS011;5824;49.336;8.652;2023-07-16T02:07:26;6.60;;;3.33;;
11535;SDS011;5824;49.336;8.652;2023-07-16T02:09:53;5.13;;;2.70;;
11535;SDS011;5824;49.336;8.652;2023-07-16T02:12:18;5.57;;;3.00;;
11535;SDS011;5824;49.336;8.652;2023-07-16T02:14:44;5.90;;;2.40;;
11535;SDS011;5824;49.336;8.652;2023-07-16T02:17:09;4.80;;;3.03;;
11535;SDS011;5824;49.336;8.652;2023-07-16T02:19:35;4.53;;;3.10;;
11535;SDS011;5824;49.336;8.652;2023-07-16T02:22:00;5.57;;;2.60;;
11535;SDS011;5824;49.336;8.652;2023-07-16T02:24:26;3.63;;;2.60;;
11535;SDS011;5824;49.336;8.652;2023-07-16T02:26:51;4.30;;;2.83;;
11535;SDS011;5824;49.336;8.652;2023-07-16T02:29:17;6.17;;;3.17;;
11535;SDS011;5824;49.336;8.652;2023-07-16T02:31:42;5.20;;;2.73;;
11535;SDS011;5824;49.336;8.652;2023-07-16T02:34:11;6.07;;;2.90;;
11535;SDS011;5824;49.336;8.652;2023-07-16T02:36:36;5.27;;;2.93;;
11535;SDS011;5824;49.336;8.652;2023-07-16T02:39:02;5.07;;;3.13;;
11535;SDS011;5824;49.336;8.652;2023-07-16T02:41:28;5.33;;;3.00;;
11535;SDS011;5824;49.336;8.652;2023-07-16T02:44:00;5.27;;;3.30;;
11535;SDS011;5824;49.336;8.652;2023-07-16T02:46:28;3.43;;;2.80;;
11535;SDS011;5824;49.336;8.652;2023-07-16T02:48:54;9.67;;;3.20;;
11535;SDS011;5824;49.336;8.652;2023-07-16T02:51:19;5.80;;;2.87;;
11535;SDS011;5824;49.336;8.652;2023-07-16T02:53:45;4.53;;;2.83;;
11535;SDS011;5824;49.336;8.652;2023-07-16T02:56:10;4.47;;;2.90;;
11535;SDS011;5824;49.336;8.652;2023-07-16T02:58:36;6.23;;;2.80;;
11535;SDS011;5824;49.336;8.652;2023-07-16T03:01:01;4.63;;;2.43;;
11535;SDS011;5824;49.336;8.652;2023-07-16T03:03:26;6.03;;;2.83;;
11535;SDS011;5824;49.336;8.652;2023-07-16T03:05:52;5.53;;;2.50;;
11535;SDS011;5824;49.336;8.652;2023-07-16T03:08:17;5.27;;;2.50;;
11535;SDS011;5824;49.336;8.652;2023-07-16T03:10:43;6.40;;;3.03;;
11535;SDS011;5824;49.336;8.652;2023-07-16T03:13:08;4.63;;;2.60;;
11535;SDS011;5824;49.336;8.652;2023-07-16T03:15:34;7.73;;;2.90;;
11535;SDS011;5824;49.336;8.652;2023-07-16T03:17:59;7.70;;;2.87;;
11535;SDS011;5824;49.336;8.652;2023-07-16T03:20:25;6.33;;;2.80;;
11535;SDS011;5824;49.336;8.652;2023-07-16T03:22:50;7.27;;;3.10;;
11535;SDS011;5824;49.336;8.652;2023-07-16T03:25:16;4.20;;;3.00;;
11535;SDS011;5824;49.336;8.652;2023-07-16T03:27:41;4.43;;;2.90;;
11535;SDS011;5824;49.336;8.652;2023-07-16T03:30:07;4.33;;;2.30;;
11535;SDS011;5824;49.336;8.652;2023-07-16T03:32:33;8.03;;;2.97;;
11535;SDS011;5824;49.336;8.652;2023-07-16T03:34:58;7.90;;;2.67;;
11535;SDS011;5824;49.336;8.652;2023-07-16T03:37:24;7.47;;;2.87;;
11535;SDS011;5824;49.336;8.652;2023-07-16T03:39:49;5.67;;;3.07;;
11535;SDS011;5824;49.336;8.652;2023-07-16T03:42:15;7.53;;;3.00;;
11535;SDS011;5824;49.336;8.652;2023-07-16T03:44:41;4.33;;;2.73;;
11535;SDS011;5824;49.336;8.652;2023-07-16T03:47:07;7.60;;;3.00;;
11535;SDS011;5824;49.336;8.652;2023-07-16T03:49:32;6.50;;;2.70;;
11535;SDS011;5824;49.336;8.652;2023-07-16T03:51:58;8.13;;;2.80;;
11535;SDS011;5824;49.336;8.652;2023-07-16T03:54:23;4.93;;;2.90;;
11535;SDS011;5824;49.336;8.652;2023-07-16T03:56:49;6.43;;;3.00;;
11535;SDS011;5824;49.336;8.652;2023-07-16T03:59:14;8.90;;;2.77;;
11535;SDS011;5824;49.336;8.652;2023-07-16T04:01:40;6.47;;;2.87;;
11535;SDS011;5824;49.336;8.652;2023-07-16T04:04:05;4.70;;;2.53;;
11535;SDS011;5824;49.336;8.652;2023-07-16T04:06:31;5.30;;;3.00;;
11535;SDS011;5824;49.336;8.652;2023-07-16T04:08:56;6.33;;;3.00;;
11535;SDS011;5824;49.336;8.652;2023-07-16T04:11:22;5.50;;;2.97;;
11535;SDS011;5824;49.336;8.652;2023-07-16T04:13:47;6.40;;;2.90;;
11535;SDS011;5824;49.336;8.652;2023-07-16T04:16:13;5.50;;;3.10;;
11535;SDS011;5824;49.336;8.652;2023-07-16T04:18:38;10.47;;;2.93;;
11535;SDS011;5824;49.336;8.652;2023-07-16T04:21:04;5.57;;;2.90;;
11535;SDS011;5824;49.336;8.652;2023-07-16T04:23:29;4.40;;;2.87;;
11535;SDS011;5824;49.336;8.652;2023-07-16T04:25:55;5.80;;;2.80;;
11535;SDS011;5824;49.336;8.652;2023-07-16T04:28:20;6.50;;;2.60;;
11535;SDS011;5824;49.336;8.652;2023-07-16T04:30:46;7.10;;;3.17;;
11535;SDS011;5824;49.336;8.652;2023-07-16T04:33:12;5.03;;;3.10;;
11535;SDS011;5824;49.336;8.652;2023-07-16T04:35:37;5.03;;;2.70;;
11535;SDS011;5824;49.336;8.652;2023-07-16T04:38:03;4.80;;;2.73;;
11535;SDS011;5824;49.336;8.652;2023-07-16T04:40:29;6.20;;;2.70;;
11535;SDS011;5824;49.336;8.652;2023-07-16T04:42:54;6.00;;;2.77;;
11535;SDS011;5824;49.336;8.652;2023-07-16T04:45:20;6.20;;;2.80;;
11535;SDS011;5824;49.336;8.652;2023-07-16T04:47:46;7.60;;;2.80;;
11535;SDS011;5824;49.336;8.652;2023-07-16T04:50:11;6.37;;;2.80;;
11535;SDS011;5824;49.336;8.652;2023-07-16T04:52:37;6.87;;;2.53;;
11535;SDS011;5824;49.336;8.652;2023-07-16T04:55:03;4.63;;;2.30;;
11535;SDS011;5824;49.336;8.652;2023-07-16T04:57:28;3.97;;;2.47;;
11535;SDS011;5824;49.336;8.652;2023-07-16T04:59:54;5.67;;;2.40;;
11535;SDS011;5824;49.336;8.652;2023-07-16T05:02:20;6.37;;;3.20;;
11535;SDS011;5824;49.336;8.652;2023-07-16T05:04:46;6.37;;;2.80;;
11535;SDS011;5824;49.336;8.652;2023-07-16T05:07:14;7.90;;;3.20;;
11535;SDS011;5824;49.336;8.652;2023-07-16T05:09:40;12.40;;;2.97;;
11535;SDS011;5824;49.336;8.652;2023-07-16T05:12:06;7.60;;;2.63;;
11535;SDS011;5824;49.336;8.652;2023-07-16T05:14:42;8.93;;;3.20;;
11535;SDS011;5824;49.336;8.652;2023-07-16T05:17:09;4.50;;;2.50;;
11535;SDS011;5824;49.336;8.652;2023-07-16T05:19:34;6.10;;;2.40;;
11535;SDS011;5824;49.336;8.652;2023-07-16T05:22:00;5.73;;;2.63;;
11535;SDS011;5824;49.336;8.652;2023-07-16T05:24:25;7.30;;;2.70;;
11535;SDS011;5824;49.336;8.652;2023-07-16T05:26:51;7.43;;;2.47;;
11535;SDS011;5824;49.336;8.652;2023-07-16T05:29:19;6.97;;;2.73;;
11535;SDS011;5824;49.336;8.652;2023-07-16T05:31:44;5.83;;;2.60;;
11535;SDS011;5824;49.336;8.652;2023-07-16T05:34:11;12.80;;;2.60;;
11535;SDS011;5824;49.336;8.652;2023-07-16T05:36:37;7.20;;;3.17;;
11535;SDS011;5824;49.336;8.652;2023-07-16T05:39:03;7.13;;;2.60;;
11535;SDS011;5824;49.336;8.652;2023-07-16T05:41:28;7.17;;;2.87;;
11535;SDS011;5824;49.336;8.652;2023-07-16T05:43:54;9.17;;;2.63;;
11535;SDS011;5824;49.336;8.652;2023-07-16T05:46:19;4.80;;;2.43;;
11535;SDS011;5824;49.336;8.652;2023-07-16T05:48:45;6.90;;;2.70;;
11535;SDS011;5824;49.336;8.652;2023-07-16T05:51:10;6.63;;;2.97;;
11535;SDS011;5824;49.336;8.652;2023-07-16T05:53:36;7.50;;;2.63;;
11535;SDS011;5824;49.336;8.652;2023-07-16T05:56:01;6.60;;;2.90;;
11535;SDS011;5824;49.336;8.652;2023-07-16T05:58:28;9.40;;;2.70;;
11535;SDS011;5824;49.336;8.652;2023-07-16T06:00:54;8.63;;;2.93;;
11535;SDS011;5824;49.336;8.652;2023-07-16T06:03:19;5.67;;;3.10;;
11535;SDS011;5824;49.336;8.652;2023-07-16T06:05:45;8.10;;;2.80;;
11535;SDS011;5824;49.336;8.652;2023-07-16T06:08:10;5.93;;;2.60;;
11535;SDS011;5824;49.336;8.652;2023-07-16T06:10:37;7.20;;;2.90;;
11535;SDS011;5824;49.336;8.652;2023-07-16T06:13:03;5.93;;;2.33;;
11535;SDS011;5824;49.336;8.652;2023-07-16T06:15:29;8.63;;;2.80;;
11535;SDS011;5824;49.336;8.652;2023-07-16T06:17:55;7.90;;;3.00;;
11535;SDS011;5824;49.336;8.652;2023-07-16T06:20:20;6.07;;;2.53;;
11535;SDS011;5824;49.336;8.652;2023-07-16T06:22:46;6.50;;;2.40;;
11535;SDS011;5824;49.336;8.652;2023-07-16T06:25:11;13.00;;;3.13;;
11535;SDS011;5824;49.336;8.652;2023-07-16T06:27:37;9.33;;;3.10;;
11535;SDS011;5824;49.336;8.652;2023-07-16T06:30:03;8.70;;;3.10;;
11535;SDS011;5824;49.336;8.652;2023-07-16T06:32:30;5.83;;;2.97;;
11535;SDS011;5824;49.336;8.652;2023-07-16T06:34:56;6.23;;;2.77;;
11535;SDS011;5824;49.336;8.652;2023-07-16T06:37:21;5.50;;;2.60;;
11535;SDS011;5824;49.336;8.652;2023-07-16T06:39:48;7.33;;;3.00;;
11535;SDS011;5824;49.336;8.652;2023-07-16T06:42:14;12.10;;;3.40;;
11535;SDS011;5824;49.336;8.652;2023-07-16T06:44:40;7.83;;;2.70;;
11535;SDS011;5824;49.336;8.652;2023-07-16T06:47:05;5.23;;;2.90;;
11535;SDS011;5824;49.336;8.652;2023-07-16T06:49:31;5.77;;;2.70;;
11535;SDS011;5824;49.336;8.652;2023-07-16T06:51:56;6.03;;;2.90;;
11535;SDS011;5824;49.336;8.652;2023-07-16T06:54:22;6.10;;;2.80;;
11535;SDS011;5824;49.336;8.652;2023-07-16T06:56:48;5.67;;;2.97;;
11535;SDS011;5824;49.336;8.652;2023-07-16T06:59:13;10.77;;;3.07;;
11535;SDS011;5824;49.336;8.652;2023-07-16T07:01:39;5.53;;;2.90;;
11535;SDS011;5824;49.336;8.652;2023-07-16T07:04:04;6.87;;;2.90;;
11535;SDS011;5824;49.336;8.652;2023-07-16T07:06:30;6.97;;;3.17;;
11535;SDS011;5824;49.336;8.652;2023-07-16T07:08:55;8.50;;;3.07;;
11535;SDS011;5824;49.336;8.652;2023-07-16T07:11:21;8.13;;;3.50;;
11535;SDS011;5824;49.336;8.652;2023-07-16T07:13:46;6.77;;;3.60;;
11535;SDS011;5824;49.336;8.652;2023-07-16T07:16:12;7.73;;;3.07;;
11535;SDS011;5824;49.336;8.652;2023-07-16T07:18:37;9.80;;;3.70;;
11535;SDS011;5824;49.336;8.652;2023-07-16T07:21:03;7.10;;;2.90;;
11535;SDS011;5824;49.336;8.652;2023-07-16T07:23:28;6.60;;;3.30;;
11535;SDS011;5824;49.336;8.652;2023-07-16T07:25:54;7.60;;;2.83;;
11535;SDS011;5824;49.336;8.652;2023-07-16T07:28:20;7.40;;;3.60;;
11535;SDS011;5824;49.336;8.652;2023-07-16T07:30:45;7.20;;;3.37;;
11535;SDS011;5824;49.336;8.652;2023-07-16T07:33:11;8.13;;;4.03;;
11535;SDS011;5824;49.336;8.652;2023-07-16T07:35:37;6.17;;;3.20;;
11535;SDS011;5824;49.336;8.652;2023-07-16T07:38:03;8.38;;;3.22;;
11535;SDS011;5824;49.336;8.652;2023-07-16T07:40:28;10.60;;;3.50;;
11535;SDS011;5824;49.336;8.652;2023-07-16T07:42:54;6.33;;;3.50;;
11535;SDS011;5824;49.336;8.652;2023-07-16T07:45:19;10.77;;;3.80;;
11535;SDS011;5824;49.336;8.652;2023-07-16T07:47:45;13.70;;;3.03;;
11535;SDS011;5824;49.336;8.652;2023-07-16T07:50:10;8.17;;;3.53;;
11535;SDS011;5824;49.336;8.652;2023-07-16T07:52:36;8.63;;;3.07;;
11535;SDS011;5824;49.336;8.652;2023-07-16T07:55:02;8.67;;;3.50;;
11535;SDS011;5824;49.336;8.652;2023-07-16T07:57:28;7.43;;;2.80;;
11535;SDS011;5824;49.336;8.652;2023-07-16T07:59:54;10.43;;;3.17;;
11535;SDS011;5824;49.336;8.652;2023-07-16T08:02:22;6.57;;;3.30;;
11535;SDS011;5824;49.336;8.652;2023-07-16T08:04:49;6.40;;;3.10;;
11535;SDS011;5824;49.336;8.652;2023-07-16T08:07:16;9.20;;;3.67;;
11535;SDS011;5824;49.336;8.652;2023-07-16T08:09:42;10.73;;;3.53;;
11535;SDS011;5824;49.336;8.652;2023-07-16T08:12:08;5.80;;;2.90;;
11535;SDS011;5824;49.336;8.652;2023-07-16T08:14:33;5.30;;;2.87;;
11535;SDS011;5824;49.336;8.652;2023-07-16T08:16:59;5.30;;;3.00;;
11535;SDS011;5824;49.336;8.652;2023-07-16T08:19:24;8.93;;;3.50;;
11535;SDS011;5824;49.336;8.652;2023-07-16T08:21:50;6.27;;;3.07;;
11535;SDS011;5824;49.336;8.652;2023-07-16T08:24:15;11.00;;;3.10;;
11535;SDS011;5824;49.336;8.652;2023-07-16T08:26:41;6.80;;;2.97;;
11535;SDS011;5824;49.336;8.652;2023-07-16T08:29:06;6.30;;;3.37;;
11535;SDS011;5824;49.336;8.652;2023-07-16T08:31:32;7.67;;;3.13;;
11535;SDS011;5824;49.336;8.652;2023-07-16T08:33:57;8.20;;;3.37;;
11535;SDS011;5824;49.336;8.652;2023-07-16T08:36:23;7.13;;;3.40;;
11535;SDS011;5824;49.336;8.652;2023-07-16T08:38:49;8.73;;;3.07;;
11535;SDS011;5824;49.336;8.652;2023-07-16T08:41:15;5.10;;;3.10;;
11535;SDS011;5824;49.336;8.652;2023-07-16T08:43:40;9.53;;;3.27;;
11535;SDS011;5824;49.336;8.652;2023-07-16T08:46:07;7.93;;;3.00;;
11535;SDS011;5824;49.336;8.652;2023-07-16T08:48:33;6.57;;;2.93;;
11535;SDS011;5824;49.336;8.652;2023-07-16T08:51:00;7.83;;;3.20;;
11535;SDS011;5824;49.336;8.652;2023-07-16T08:53:27;8.63;;;3.10;;
11535;SDS011;5824;49.336;8.652;2023-07-16T08:55:52;6.60;;;2.93;;
11535;SDS011;5824;49.336;8.652;2023-07-16T08:58:18;6.10;;;3.33;;
11535;SDS011;5824;49.336;8.652;2023-07-16T09:00:47;6.07;;;2.70;;
11535;SDS011;5824;49.336;8.652;2023-07-16T09:03:13;8.97;;;3.23;;
11535;SDS011;5824;49.336;8.652;2023-07-16T09:05:41;10.20;;;3.00;;
11535;SDS011;5824;49.336;8.652;2023-07-16T09:08:07;9.30;;;3.20;;
11535;SDS011;5824;49.336;8.652;2023-07-16T09:10:33;9.80;;;3.57;;
11535;SDS011;5824;49.336;8.652;2023-07-16T09:12:59;11.53;;;3.30;;
11535;SDS011;5824;49.336;8.652;2023-07-16T09:15:26;8.47;;;3.00;;
11535;SDS011;5824;49.336;8.652;2023-07-16T09:17:53;8.00;;;3.53;;
11535;SDS011;5824;49.336;8.652;2023-07-16T09:20:19;7.53;;;2.70;;
11535;SDS011;5824;49.336;8.652;2023-07-16T09:22:47;6.17;;;2.80;;
11535;SDS011;5824;49.336;8.652;2023-07-16T09:25:12;7.23;;;2.50;;
11535;SDS011;5824;49.336;8.652;2023-07-16T09:27:38;13.30;;;2.90;;
11535;SDS011;5824;49.336;8.652;2023-07-16T09:30:04;8.40;;;2.97;;
11535;SDS011;5824;49.336;8.652;2023-07-16T09:32:37;10.70;;;3.23;;
11535;SDS011;5824;49.336;8.652;2023-07-16T09:35:10;8.80;;;2.60;;
11535;SDS011;5824;49.336;8.652;2023-07-16T09:37:37;5.70;;;2.83;;
11535;SDS011;5824;49.336;8.652;2023-07-16T09:40:04;7.20;;;2.50;;
11535;SDS011;5824;49.336;8.652;2023-07-16T09:42:36;6.55;;;2.63;;
11535;SDS011;5824;49.336;8.652;2023-07-16T09:45:06;6.17;;;2.60;;
11535;SDS011;5824;49.336;8.652;2023-07-16T09:47:44;9.13;;;2.50;;
11535;SDS011;5824;49.336;8.652;2023-07-16T09:50:10;11.40;;;2.83;;
11535;SDS011;5824;49.336;8.652;2023-07-16T09:52:36;5.50;;;2.77;;
11535;SDS011;5824;49.336;8.652;2023-07-16T09:55:02;12.67;;;3.47;;
11535;SDS011;5824;49.336;8.652;2023-07-16T09:57:32;5.22;;;2.55;;
11535;SDS011;5824;49.336;8.652;2023-07-16T10:00:00;10.15;;;2.72;;
11535;SDS011;5824;49.336;8.652;2023-07-16T10:02:33;7.13;;;2.45;;
11535;SDS011;5824;49.336;8.652;2023-07-16T10:05:10;8.68;;;2.88;;
11535;SDS011;5824;49.336;8.652;2023-07-16T10:07:36;6.47;;;2.80;;
11535;SDS011;5824;49.336;8.652;2023-07-16T10:10:02;6.18;;;2.63;;
11535;SDS011;5824;49.336;8.652;2023-07-16T10:12:34;10.25;;;2.95;;
11535;SDS011;5824;49.336;8.652;2023-07-16T10:15:00;7.03;;;2.50;;
11535;SDS011;5824;49.336;8.652;2023-07-16T10:17:29;5.20;;;2.50;;
11535;SDS011;5824;49.336;8.652;2023-07-16T10:19:59;5.93;;;2.90;;
11535;SDS011;5824;49.336;8.652;2023-07-16T10:22:32;6.10;;;2.80;;
11535;SDS011;5824;49.336;8.652;2023-07-16T10:24:58;8.68;;;2.67;;
11535;SDS011;5824;49.336;8.652;2023-07-16T10:27:26;5.70;;;3.00;;
11535;SDS011;5824;49.336;8.652;2023-07-16T10:29:52;9.55;;;3.28;;
11535;SDS011;5824;49.336;8.652;2023-07-16T10:32:19;5.20;;;2.40;;
11535;SDS011;5824;49.336;8.652;2023-07-16T10:34:45;5.70;;;2.53;;
11535;SDS011;5824;49.336;8.652;2023-07-16T10:37:11;6.80;;;2.80;;
11535;SDS011;5824;49.336;8.652;2023-07-16T10:39:44;4.97;;;2.90;;
11535;SDS011;5824;49.336;8.652;2023-07-16T10:42:16;7.27;;;3.00;;
11535;SDS011;5824;49.336;8.652;2023-07-16T10:44:42;6.33;;;3.00;;
11535;SDS011;5824;49.336;8.652;2023-07-16T10:47:09;6.93;;;2.92;;
11535;SDS011;5824;49.336;8.652;2023-07-16T10:49:43;6.30;;;2.63;;
11535;SDS011;5824;49.336;8.652;2023-07-16T10:52:09;6.90;;;2.80;;
11535;SDS011;5824;49.336;8.652;2023-07-16T10:54:35;6.07;;;2.88;;
11535;SDS011;5824;49.336;8.652;2023-07-16T10:57:00;12.68;;;3.03;;
11535;SDS011;5824;49.336;8.652;2023-07-16T10:59:26;7.35;;;2.70;;
11535;SDS011;5824;49.336;8.652;2023-07-16T11:01:52;7.00;;;2.95;;
11535;SDS011;5824;49.336;8.652;2023-07-16T11:04:17;7.95;;;3.00;;
11535;SDS011;5824;49.336;8.652;2023-07-16T11:06:43;5.30;;;2.58;;
11535;SDS011;5824;49.336;8.652;2023-07-16T11:09:09;5.93;;;2.92;;
11535;SDS011;5824;49.336;8.652;2023-07-16T11:11:34;6.95;;;2.63;;
11535;SDS011;5824;49.336;8.652;2023-07-16T11:14:03;5.60;;;2.80;;
11535;SDS011;5824;49.336;8.652;2023-07-16T11:16:38;6.72;;;2.90;;
11535;SDS011;5824;49.336;8.652;2023-07-16T11:19:04;5.00;;;2.17;;
11535;SDS011;5824;49.336;8.652;2023-07-16T11:21:31;6.03;;;2.92;;
11535;SDS011;5824;49.336;8.652;2023-07-16T11:24:08;4.65;;;2.45;;
11535;SDS011;5824;49.336;8.652;2023-07-16T11:26:51;5.88;;;2.83;;
11535;SDS011;5824;49.336;8.652;2023-07-16T11:29:17;7.00;;;2.78;;
11535;SDS011;5824;49.336;8.652;2023-07-16T11:31:42;5.57;;;2.60;;
11535;SDS011;5824;49.336;8.652;2023-07-16T11:34:12;5.97;;;2.67;;
11535;SDS011;5824;49.336;8.652;2023-07-16T11:36:38;6.55;;;3.00;;
11535;SDS011;5824;49.336;8.652;2023-07-16T11:39:03;8.75;;;2.85;;
11535;SDS011;5824;49.336;8.652;2023-07-16T11:41:29;7.38;;;3.08;;
11535;SDS011;5824;49.336;8.652;2023-07-16T11:43:58;4.70;;;2.60;;
11535;SDS011;5824;49.336;8.652;2023-07-16T11:46:25;8.25;;;3.25;;
11535;SDS011;5824;49.336;8.652;2023-07-16T11:48:57;8.40;;;3.15;;
11535;SDS011;5824;49.336;8.652;2023-07-16T11:51:22;6.47;;;2.70;;
11535;SDS011;5824;49.336;8.652;2023-07-16T11:53:48;7.78;;;3.25;;
11535;SDS011;5824;49.336;8.652;2023-07-16T11:56:13;5.90;;;2.70;;
11535;SDS011;5824;49.336;8.652;2023-07-16T11:58:39;6.32;;;2.95;;
11535;SDS011;5824;49.336;8.652;2023-07-16T12:01:04;10.95;;;3.13;;
11535;SDS011;5824;49.336;8.652;2023-07-16T12:03:30;9.77;;;3.42;;
11535;SDS011;5824;49.336;8.652;2023-07-16T12:05:55;5.40;;;2.65;;
11535;SDS011;5824;49.336;8.652;2023-07-16T12:08:21;7.40;;;2.70;;
11535;SDS011;5824;49.336;8.652;2023-07-16T12:10:47;6.63;;;2.83;;
11535;SDS011;5824;49.336;8.652;2023-07-16T12:13:12;4.82;;;2.60;;
11535;SDS011;5824;49.336;8.652;2023-07-16T12:15:38;6.53;;;2.45;;
11535;SDS011;5824;49.336;8.652;2023-07-16T12:18:03;5.57;;;2.67;;
11535;SDS011;5824;49.336;8.652;2023-07-16T12:20:29;6.80;;;2.70;;
11535;SDS011;5824;49.336;8.652;2023-07-16T12:22:54;5.65;;;2.63;;
11535;SDS011;5824;49.336;8.652;2023-07-16T12:25:20;7.80;;;2.95;;
11535;SDS011;5824;49.336;8.652;2023-07-16T12:27:46;6.28;;;2.60;;
11535;SDS011;5824;49.336;8.652;2023-07-16T12:30:11;6.43;;;3.10;;
11535;SDS011;5824;49.336;8.652;2023-07-16T12:32:37;6.65;;;2.53;;
11535;SDS011;5824;49.336;8.652;2023-07-16T12:35:03;7.65;;;2.55;;
11535;SDS011;5824;49.336;8.652;2023-07-16T12:37:29;4.95;;;2.63;;
11535;SDS011;5824;49.336;8.652;2023-07-16T12:39:55;7.32;;;2.75;;
11535;SDS011;5824;49.336;8.652;2023-07-16T12:42:20;9.48;;;2.70;;
11535;SDS011;5824;49.336;8.652;2023-07-16T12:44:46;7.28;;;3.20;;
11535;SDS011;5824;49.336;8.652;2023-07-16T12:47:11;5.68;;;2.78;;
11535;SDS011;5824;49.336;8.652;2023-07-16T12:49:37;6.55;;;2.55;;
11535;SDS011;5824;49.336;8.652;2023-07-16T12:52:03;6.20;;;2.60;;
11535;SDS011;5824;49.336;8.652;2023-07-16T12:54:28;6.13;;;2.47;;
11535;SDS011;5824;49.336;8.652;2023-07-16T12:56:54;4.60;;;2.60;;
11535;SDS011;5824;49.336;8.652;2023-07-16T12:59:20;6.43;;;2.72;;
11535;SDS011;5824;49.336;8.652;2023-07-16T13:01:45;6.70;;;2.88;;
11535;SDS011;5824;49.336;8.652;2023-07-16T13:04:11;3.97;;;2.47;;
11535;SDS011;5824;49.336;8.652;2023-07-16T13:06:36;7.40;;;3.13;;
11535;SDS011;5824;49.336;8.652;2023-07-16T13:09:02;6.60;;;2.75;;
11535;SDS011;5824;49.336;8.652;2023-07-16T13:11:30;5.57;;;2.40;;
11535;SDS011;5824;49.336;8.652;2023-07-16T13:13:55;5.60;;;2.80;;
11535;SDS011;5824;49.336;8.652;2023-07-16T13:16:21;4.82;;;2.53;;
11535;SDS011;5824;49.336;8.652;2023-07-16T13:18:47;5.88;;;2.60;;
11535;SDS011;5824;49.336;8.652;2023-07-16T13:21:12;5.25;;;2.90;;
11535;SDS011;5824;49.336;8.652;2023-07-16T13:23:38;5.97;;;3.05;;
11535;SDS011;5824;49.336;8.652;2023-07-16T13:26:03;5.13;;;2.60;;
11535;SDS011;5824;49.336;8.652;2023-07-16T13:28:29;5.32;;;2.50;;
11535;SDS011;5824;49.336;8.652;2023-07-16T13:30:54;6.68;;;2.67;;
11535;SDS011;5824;49.336;8.652;2023-07-16T13:33:20;6.38;;;3.28;;
11535;SDS011;5824;49.336;8.652;2023-07-16T13:35:45;6.97;;;2.72;;
11535;SDS011;5824;49.336;8.652;2023-07-16T13:38:11;6.75;;;2.80;;
11535;SDS011;5824;49.336;8.652;2023-07-16T13:40:36;5.10;;;2.90;;
11535;SDS011;5824;49.336;8.652;2023-07-16T13:43:02;5.40;;;2.65;;
11535;SDS011;5824;49.336;8.652;2023-07-16T13:45:28;6.15;;;2.97;;
11535;SDS011;5824;49.336;8.652;2023-07-16T13:47:53;4.80;;;2.60;;
11535;SDS011;5824;49.336;8.652;2023-07-16T13:50:20;9.52;;;3.00;;
11535;SDS011;5824;49.336;8.652;2023-07-16T13:52:46;5.07;;;2.72;;
11535;SDS011;5824;49.336;8.652;2023-07-16T13:55:11;6.75;;;2.70;;
11535;SDS011;5824;49.336;8.652;2023-07-16T13:57:37;5.72;;;3.20;;
11535;SDS011;5824;49.336;8.652;2023-07-16T14:00:03;8.88;;;3.03;;
11535;SDS011;5824;49.336;8.652;2023-07-16T14:02:29;7.15;;;3.10;;
11535;SDS011;5824;49.336;8.652;2023-07-16T14:04:55;5.75;;;3.22;;
11535;SDS011;5824;49.336;8.652;2023-07-16T14:07:21;7.30;;;4.97;;
11535;SDS011;5824;49.336;8.652;2023-07-16T14:09:47;5.78;;;3.28;;
11535;SDS011;5824;49.336;8.652;2023-07-16T14:12:13;4.93;;;2.90;;
11535;SDS011;5824;49.336;8.652;2023-07-16T14:14:38;5.80;;;3.17;;
11535;SDS011;5824;49.336;8.652;2023-07-16T14:17:04;7.20;;;3.10;;
11535;SDS011;5824;49.336;8.652;2023-07-16T14:19:30;5.10;;;2.97;;
11535;SDS011;5824;49.336;8.652;2023-07-16T14:21:55;7.13;;;2.83;;
11535;SDS011;5824;49.336;8.652;2023-07-16T14:24:21;6.85;;;3.25;;
11535;SDS011;5824;49.336;8.652;2023-07-16T14:26:46;4.93;;;2.97;;
11535;SDS011;5824;49.336;8.652;2023-07-16T14:29:12;6.85;;;2.80;;
11535;SDS011;5824;49.336;8.652;2023-07-16T14:31:38;5.63;;;3.03;;
11535;SDS011;5824;49.336;8.652;2023-07-16T14:34:03;7.53;;;3.25;;
11535;SDS011;5824;49.336;8.652;2023-07-16T14:36:29;6.68;;;3.13;;
11535;SDS011;5824;49.336;8.652;2023-07-16T14:38:54;6.00;;;2.72;;
11535;SDS011;5824;49.336;8.652;2023-07-16T14:41:20;5.78;;;3.30;;
11535;SDS011;5824;49.336;8.652;2023-07-16T14:43:45;7.82;;;3.03;;
11535;SDS011;5824;49.336;8.652;2023-07-16T14:46:14;6.05;;;2.75;;
11535;SDS011;5824;49.336;8.652;2023-07-16T14:48:42;8.00;;;3.05;;
11535;SDS011;5824;49.336;8.652;2023-07-16T14:51:09;5.90;;;3.22;;
11535;SDS011;5824;49.336;8.652;2023-07-16T14:53:36;6.20;;;3.22;;
11535;SDS011;5824;49.336;8.652;2023-07-16T14:56:01;5.97;;;3.20;;
11535;SDS011;5824;49.336;8.652;2023-07-16T14:58:28;7.43;;;3.30;;
11535;SDS011;5824;49.336;8.652;2023-07-16T15:00:54;5.85;;;3.05;;